sensor_id;sensor_type;location;lat;lon;timestamp;P1;durP1;ratioP1;P2;durP2;ratioP2
30519;SDS011;17300;50.374;8.006;2022-08-06T00:02:27;1.30;;;1.00;;
30519;SDS011;17300;50.374;8.006;2022-08-06T00:04:55;2.00;;;0.90;;
30519;SDS011;17300;50.374;8.006;2022-08-06T00:07:24;1.87;;;0.90;;
30519;SDS011;17300;50.374;8.006;2022-08-06T00:09:51;1.23;;;1.10;;
30519;SDS011;17300;50.374;8.006;2022-08-06T00:12:18;1.00;;;0.80;;
30519;SDS011;17300;50.374;8.006;2022-08-06T00:14:44;1.07;;;0.93;;
30519;SDS011;17300;50.374;8.006;2022-08-06T00:17:11;1.00;;;0.90;;
30519;SDS011;17300;50.374;8.006;2022-08-06T00:19:38;0.80;;;0.80;;
30519;SDS011;17300;50.374;8.006;2022-08-06T00:22:05;0.80;;;0.80;;
30519;SDS011;17300;50.374;8.006;2022-08-06T00:24:33;1.30;;;1.00;;
30519;SDS011;17300;50.374;8.006;2022-08-06T00:26:59;1.00;;;0.90;;
30519;SDS011;17300;50.374;8.006;2022-08-06T00:29:26;0.87;;;0.80;;
30519;SDS011;17300;50.374;8.006;2022-08-06T00:31:53;1.00;;;0.90;;
30519;SDS011;17300;50.374;8.006;2022-08-06T00:34:20;0.97;;;0.97;;
30519;SDS011;17300;50.374;8.006;2022-08-06T00:36:46;0.90;;;0.90;;
30519;SDS011;17300;50.374;8.006;2022-08-06T00:39:13;0.90;;;0.87;;
30519;SDS011;17300;50.374;8.006;2022-08-06T00:41:41;1.00;;;0.90;;
30519;SDS011;17300;50.374;8.006;2022-08-06T00:44:08;1.43;;;0.97;;
30519;SDS011;17300;50.374;8.006;2022-08-06T00:46:35;1.13;;;0.70;;
30519;SDS011;17300;50.374;8.006;2022-08-06T00:49:02;3.00;;;1.20;;
30519;SDS011;17300;50.374;8.006;2022-08-06T00:51:29;1.03;;;0.93;;
30519;SDS011;17300;50.374;8.006;2022-08-06T00:53:56;0.77;;;0.77;;
30519;SDS011;17300;50.374;8.006;2022-08-06T00:56:23;0.90;;;0.90;;
30519;SDS011;17300;50.374;8.006;2022-08-06T00:58:51;0.60;;;0.60;;
30519;SDS011;17300;50.374;8.006;2022-08-06T01:01:18;0.70;;;0.70;;
30519;SDS011;17300;50.374;8.006;2022-08-06T01:03:45;1.03;;;0.93;;
30519;SDS011;17300;50.374;8.006;2022-08-06T01:06:12;1.00;;;1.00;;
30519;SDS011;17300;50.374;8.006;2022-08-06T01:08:38;0.80;;;0.80;;
30519;SDS011;17300;50.374;8.006;2022-08-06T01:11:05;2.37;;;1.30;;
30519;SDS011;17300;50.374;8.006;2022-08-06T01:13:32;1.70;;;1.00;;
30519;SDS011;17300;50.374;8.006;2022-08-06T01:16:05;1.20;;;0.90;;
30519;SDS011;17300;50.374;8.006;2022-08-06T01:18:39;0.77;;;0.77;;
30519;SDS011;17300;50.374;8.006;2022-08-06T01:21:20;0.93;;;0.63;;
30519;SDS011;17300;50.374;8.006;2022-08-06T01:24:08;0.73;;;0.73;;
30519;SDS011;17300;50.374;8.006;2022-08-06T01:26:49;0.77;;;0.73;;
30519;SDS011;17300;50.374;8.006;2022-08-06T01:29:22;0.70;;;0.70;;
30519;SDS011;17300;50.374;8.006;2022-08-06T01:31:53;0.90;;;0.90;;
30519;SDS011;17300;50.374;8.006;2022-08-06T01:34:27;1.17;;;0.70;;
30519;SDS011;17300;50.374;8.006;2022-08-06T01:37:01;0.60;;;0.60;;
30519;SDS011;17300;50.374;8.006;2022-08-06T01:39:35;0.80;;;0.80;;
30519;SDS011;17300;50.374;8.006;2022-08-06T01:42:04;0.70;;;0.70;;
30519;SDS011;17300;50.374;8.006;2022-08-06T01:44:34;0.87;;;0.80;;
30519;SDS011;17300;50.374;8.006;2022-08-06T01:47:05;0.60;;;0.60;;
30519;SDS011;17300;50.374;8.006;2022-08-06T01:49:34;0.60;;;0.60;;
30519;SDS011;17300;50.374;8.006;2022-08-06T01:52:03;0.73;;;0.60;;
30519;SDS011;17300;50.374;8.006;2022-08-06T01:54:34;0.80;;;0.80;;
30519;SDS011;17300;50.374;8.006;2022-08-06T01:57:04;0.90;;;0.67;;
30519;SDS011;17300;50.374;8.006;2022-08-06T01:59:34;0.63;;;0.63;;
30519;SDS011;17300;50.374;8.006;2022-08-06T02:02:04;0.70;;;0.70;;
30519;SDS011;17300;50.374;8.006;2022-08-06T02:04:35;1.23;;;0.87;;
30519;SDS011;17300;50.374;8.006;2022-08-06T02:07:06;0.93;;;0.70;;
30519;SDS011;17300;50.374;8.006;2022-08-06T02:09:35;0.83;;;0.83;;
30519;SDS011;17300;50.374;8.006;2022-08-06T02:12:10;1.10;;;0.90;;
30519;SDS011;17300;50.374;8.006;2022-08-06T02:14:45;0.63;;;0.63;;
30519;SDS011;17300;50.374;8.006;2022-08-06T02:17:15;0.73;;;0.73;;
30519;SDS011;17300;50.374;8.006;2022-08-06T02:19:44;0.70;;;0.70;;
30519;SDS011;17300;50.374;8.006;2022-08-06T02:22:12;0.70;;;0.70;;
30519;SDS011;17300;50.374;8.006;2022-08-06T02:24:40;0.80;;;0.70;;
30519;SDS011;17300;50.374;8.006;2022-08-06T02:27:09;2.10;;;0.70;;
30519;SDS011;17300;50.374;8.006;2022-08-06T02:29:37;0.70;;;0.53;;
30519;SDS011;17300;50.374;8.006;2022-08-06T02:32:07;0.70;;;0.70;;
30519;SDS011;17300;50.374;8.006;2022-08-06T02:34:36;1.37;;;0.77;;
30519;SDS011;17300;50.374;8.006;2022-08-06T02:37:05;0.80;;;0.80;;
30519;SDS011;17300;50.374;8.006;2022-08-06T02:39:37;0.70;;;0.60;;
30519;SDS011;17300;50.374;8.006;2022-08-06T02:42:08;0.50;;;0.50;;
30519;SDS011;17300;50.374;8.006;2022-08-06T02:44:42;0.70;;;0.70;;
30519;SDS011;17300;50.374;8.006;2022-08-06T02:47:17;1.33;;;0.60;;
30519;SDS011;17300;50.374;8.006;2022-08-06T02:49:48;1.10;;;0.67;;
30519;SDS011;17300;50.374;8.006;2022-08-06T02:52:19;0.77;;;0.60;;
30519;SDS011;17300;50.374;8.006;2022-08-06T02:54:53;0.90;;;0.70;;
30519;SDS011;17300;50.374;8.006;2022-08-06T02:57:23;1.00;;;0.70;;
30519;SDS011;17300;50.374;8.006;2022-08-06T02:59:59;0.83;;;0.83;;
30519;SDS011;17300;50.374;8.006;2022-08-06T03:02:33;0.83;;;0.80;;
30519;SDS011;17300;50.374;8.006;2022-08-06T03:05:03;1.83;;;0.67;;
30519;SDS011;17300;50.374;8.006;2022-08-06T03:07:32;0.93;;;0.80;;
30519;SDS011;17300;50.374;8.006;2022-08-06T03:10:01;0.80;;;0.80;;
30519;SDS011;17300;50.374;8.006;2022-08-06T03:12:28;1.07;;;0.97;;
30519;SDS011;17300;50.374;8.006;2022-08-06T03:14:56;1.60;;;0.83;;
30519;SDS011;17300;50.374;8.006;2022-08-06T03:17:27;1.60;;;0.93;;
30519;SDS011;17300;50.374;8.006;2022-08-06T03:19:56;0.80;;;0.70;;
30519;SDS011;17300;50.374;8.006;2022-08-06T03:22:26;0.83;;;0.83;;
30519;SDS011;17300;50.374;8.006;2022-08-06T03:24:54;0.60;;;0.60;;
30519;SDS011;17300;50.374;8.006;2022-08-06T03:27:22;0.80;;;0.80;;
30519;SDS011;17300;50.374;8.006;2022-08-06T03:29:51;1.80;;;1.03;;
30519;SDS011;17300;50.374;8.006;2022-08-06T03:32:19;0.77;;;0.73;;
30519;SDS011;17300;50.374;8.006;2022-08-06T03:34:47;0.60;;;0.60;;
30519;SDS011;17300;50.374;8.006;2022-08-06T03:37:17;0.70;;;0.70;;
30519;SDS011;17300;50.374;8.006;2022-08-06T03:39:46;1.13;;;0.80;;
30519;SDS011;17300;50.374;8.006;2022-08-06T03:42:18;0.80;;;0.80;;
30519;SDS011;17300;50.374;8.006;2022-08-06T03:45:06;0.80;;;0.80;;
30519;SDS011;17300;50.374;8.006;2022-08-06T03:47:36;1.33;;;0.90;;
30519;SDS011;17300;50.374;8.006;2022-08-06T03:50:08;0.50;;;0.50;;
30519;SDS011;17300;50.374;8.006;2022-08-06T03:52:38;1.33;;;0.80;;
30519;SDS011;17300;50.374;8.006;2022-08-06T03:55:10;0.80;;;0.80;;
30519;SDS011;17300;50.374;8.006;2022-08-06T03:57:41;1.60;;;1.30;;
30519;SDS011;17300;50.374;8.006;2022-08-06T04:00:12;7.80;;;7.00;;
30519;SDS011;17300;50.374;8.006;2022-08-06T04:02:43;5.87;;;5.20;;
30519;SDS011;17300;50.374;8.006;2022-08-06T04:05:14;3.40;;;3.10;;
30519;SDS011;17300;50.374;8.006;2022-08-06T04:07:45;2.60;;;2.20;;
30519;SDS011;17300;50.374;8.006;2022-08-06T04:10:13;2.33;;;2.13;;
30519;SDS011;17300;50.374;8.006;2022-08-06T04:12:41;3.40;;;2.77;;
30519;SDS011;17300;50.374;8.006;2022-08-06T04:15:09;3.03;;;2.37;;
30519;SDS011;17300;50.374;8.006;2022-08-06T04:17:37;1.73;;;1.63;;
30519;SDS011;17300;50.374;8.006;2022-08-06T04:20:07;1.60;;;1.13;;
30519;SDS011;17300;50.374;8.006;2022-08-06T04:22:34;1.00;;;0.90;;
30519;SDS011;17300;50.374;8.006;2022-08-06T04:25:03;1.20;;;1.07;;
30519;SDS011;17300;50.374;8.006;2022-08-06T04:27:30;1.27;;;1.00;;
30519;SDS011;17300;50.374;8.006;2022-08-06T04:29:57;0.83;;;0.83;;
30519;SDS011;17300;50.374;8.006;2022-08-06T04:32:26;0.87;;;0.83;;
30519;SDS011;17300;50.374;8.006;2022-08-06T04:34:58;0.90;;;0.80;;
30519;SDS011;17300;50.374;8.006;2022-08-06T04:37:27;0.77;;;0.70;;
30519;SDS011;17300;50.374;8.006;2022-08-06T04:39:54;2.03;;;1.20;;
30519;SDS011;17300;50.374;8.006;2022-08-06T04:42:23;0.90;;;0.80;;
30519;SDS011;17300;50.374;8.006;2022-08-06T04:44:50;0.70;;;0.70;;
30519;SDS011;17300;50.374;8.006;2022-08-06T04:47:18;2.27;;;1.10;;
30519;SDS011;17300;50.374;8.006;2022-08-06T04:49:45;0.80;;;0.80;;
30519;SDS011;17300;50.374;8.006;2022-08-06T04:52:19;1.20;;;1.10;;
30519;SDS011;17300;50.374;8.006;2022-08-06T04:54:47;0.83;;;0.83;;
30519;SDS011;17300;50.374;8.006;2022-08-06T04:57:13;0.97;;;0.90;;
30519;SDS011;17300;50.374;8.006;2022-08-06T04:59:41;0.90;;;0.80;;
30519;SDS011;17300;50.374;8.006;2022-08-06T05:02:09;1.83;;;1.00;;
30519;SDS011;17300;50.374;8.006;2022-08-06T05:04:35;0.87;;;0.87;;
30519;SDS011;17300;50.374;8.006;2022-08-06T05:07:05;0.80;;;0.80;;
30519;SDS011;17300;50.374;8.006;2022-08-06T05:09:36;0.80;;;0.80;;
30519;SDS011;17300;50.374;8.006;2022-08-06T05:12:05;1.17;;;0.90;;
30519;SDS011;17300;50.374;8.006;2022-08-06T05:14:40;1.53;;;0.90;;
30519;SDS011;17300;50.374;8.006;2022-08-06T05:17:14;0.80;;;0.80;;
30519;SDS011;17300;50.374;8.006;2022-08-06T05:19:46;0.90;;;0.70;;
30519;SDS011;17300;50.374;8.006;2022-08-06T05:22:18;0.87;;;0.80;;
30519;SDS011;17300;50.374;8.006;2022-08-06T05:24:45;1.27;;;0.90;;
30519;SDS011;17300;50.374;8.006;2022-08-06T05:27:13;1.07;;;0.80;;
30519;SDS011;17300;50.374;8.006;2022-08-06T05:29:41;1.63;;;0.83;;
30519;SDS011;17300;50.374;8.006;2022-08-06T05:32:09;0.70;;;0.70;;
30519;SDS011;17300;50.374;8.006;2022-08-06T05:34:36;1.03;;;0.83;;
30519;SDS011;17300;50.374;8.006;2022-08-06T05:37:03;1.53;;;1.00;;
30519;SDS011;17300;50.374;8.006;2022-08-06T05:39:29;0.90;;;0.90;;
30519;SDS011;17300;50.374;8.006;2022-08-06T05:41:57;0.70;;;0.70;;
30519;SDS011;17300;50.374;8.006;2022-08-06T05:44:24;0.70;;;0.70;;
30519;SDS011;17300;50.374;8.006;2022-08-06T05:46:51;0.80;;;0.80;;
30519;SDS011;17300;50.374;8.006;2022-08-06T05:49:28;0.73;;;0.60;;
30519;SDS011;17300;50.374;8.006;2022-08-06T05:52:04;1.03;;;0.90;;
30519;SDS011;17300;50.374;8.006;2022-08-06T05:54:35;0.60;;;0.60;;
30519;SDS011;17300;50.374;8.006;2022-08-06T05:57:06;1.30;;;0.80;;
30519;SDS011;17300;50.374;8.006;2022-08-06T05:59:38;1.43;;;0.70;;
30519;SDS011;17300;50.374;8.006;2022-08-06T06:02:10;0.60;;;0.60;;
30519;SDS011;17300;50.374;8.006;2022-08-06T06:04:39;0.60;;;0.60;;
30519;SDS011;17300;50.374;8.006;2022-08-06T06:07:09;0.93;;;0.80;;
30519;SDS011;17300;50.374;8.006;2022-08-06T06:09:36;0.82;;;0.70;;
30519;SDS011;17300;50.374;8.006;2022-08-06T06:12:04;0.85;;;0.60;;
30519;SDS011;17300;50.374;8.006;2022-08-06T06:14:34;0.80;;;0.80;;
30519;SDS011;17300;50.374;8.006;2022-08-06T06:17:19;0.45;;;0.45;;
30519;SDS011;17300;50.374;8.006;2022-08-06T06:20:01;1.40;;;0.60;;
30519;SDS011;17300;50.374;8.006;2022-08-06T06:22:38;1.13;;;0.55;;
30519;SDS011;17300;50.374;8.006;2022-08-06T06:25:11;1.27;;;0.65;;
30519;SDS011;17300;50.374;8.006;2022-08-06T06:27:44;0.40;;;0.40;;
30519;SDS011;17300;50.374;8.006;2022-08-06T06:30:16;0.95;;;0.50;;
30519;SDS011;17300;50.374;8.006;2022-08-06T06:32:50;0.75;;;0.68;;
30519;SDS011;17300;50.374;8.006;2022-08-06T06:35:26;0.60;;;0.60;;
30519;SDS011;17300;50.374;8.006;2022-08-06T06:38:00;1.40;;;0.60;;
30519;SDS011;17300;50.374;8.006;2022-08-06T06:40:45;0.50;;;0.50;;
30519;SDS011;17300;50.374;8.006;2022-08-06T06:43:18;0.45;;;0.40;;
30519;SDS011;17300;50.374;8.006;2022-08-06T06:45:51;0.40;;;0.40;;
30519;SDS011;17300;50.374;8.006;2022-08-06T06:48:25;0.50;;;0.50;;
30519;SDS011;17300;50.374;8.006;2022-08-06T06:50:59;1.33;;;0.60;;
30519;SDS011;17300;50.374;8.006;2022-08-06T06:53:30;0.50;;;0.50;;
30519;SDS011;17300;50.374;8.006;2022-08-06T06:56:00;2.15;;;0.55;;
30519;SDS011;17300;50.374;8.006;2022-08-06T06:58:31;0.52;;;0.45;;
30519;SDS011;17300;50.374;8.006;2022-08-06T07:01:03;0.98;;;0.40;;
30519;SDS011;17300;50.374;8.006;2022-08-06T07:03:31;0.65;;;0.60;;
30519;SDS011;17300;50.374;8.006;2022-08-06T07:06:01;0.75;;;0.50;;
30519;SDS011;17300;50.374;8.006;2022-08-06T07:08:30;1.35;;;0.55;;
30519;SDS011;17300;50.374;8.006;2022-08-06T07:10:59;0.45;;;0.45;;
30519;SDS011;17300;50.374;8.006;2022-08-06T07:13:27;0.73;;;0.60;;
30519;SDS011;17300;50.374;8.006;2022-08-06T07:15:56;1.27;;;0.60;;
30519;SDS011;17300;50.374;8.006;2022-08-06T07:18:24;0.50;;;0.50;;
30519;SDS011;17300;50.374;8.006;2022-08-06T07:20:52;0.43;;;0.43;;
30519;SDS011;17300;50.374;8.006;2022-08-06T07:23:22;0.47;;;0.43;;
30519;SDS011;17300;50.374;8.006;2022-08-06T07:25:49;1.15;;;0.75;;
30519;SDS011;17300;50.374;8.006;2022-08-06T07:28:18;1.90;;;0.57;;
30519;SDS011;17300;50.374;8.006;2022-08-06T07:30:48;1.33;;;0.50;;
30519;SDS011;17300;50.374;8.006;2022-08-06T07:33:15;0.93;;;0.50;;
30519;SDS011;17300;50.374;8.006;2022-08-06T07:35:45;0.43;;;0.40;;
30519;SDS011;17300;50.374;8.006;2022-08-06T07:38:13;1.27;;;0.57;;
30519;SDS011;17300;50.374;8.006;2022-08-06T07:40:43;0.52;;;0.50;;
30519;SDS011;17300;50.374;8.006;2022-08-06T07:43:16;0.77;;;0.40;;
30519;SDS011;17300;50.374;8.006;2022-08-06T07:45:47;1.10;;;0.40;;
30519;SDS011;17300;50.374;8.006;2022-08-06T07:48:15;0.93;;;0.40;;
30519;SDS011;17300;50.374;8.006;2022-08-06T07:50:47;0.95;;;0.50;;
30519;SDS011;17300;50.374;8.006;2022-08-06T07:53:16;0.63;;;0.40;;
30519;SDS011;17300;50.374;8.006;2022-08-06T07:55:46;1.77;;;0.50;;
30519;SDS011;17300;50.374;8.006;2022-08-06T07:58:13;0.88;;;0.50;;
30519;SDS011;17300;50.374;8.006;2022-08-06T08:00:41;0.70;;;0.47;;
30519;SDS011;17300;50.374;8.006;2022-08-06T08:03:09;0.63;;;0.40;;
30519;SDS011;17300;50.374;8.006;2022-08-06T08:05:53;0.50;;;0.50;;
30519;SDS011;17300;50.374;8.006;2022-08-06T08:08:38;0.65;;;0.45;;
30519;SDS011;17300;50.374;8.006;2022-08-06T08:11:06;0.70;;;0.50;;
30519;SDS011;17300;50.374;8.006;2022-08-06T08:13:34;0.98;;;0.50;;
30519;SDS011;17300;50.374;8.006;2022-08-06T08:16:02;0.32;;;0.32;;
30519;SDS011;17300;50.374;8.006;2022-08-06T08:18:31;0.47;;;0.40;;
30519;SDS011;17300;50.374;8.006;2022-08-06T08:20:58;0.55;;;0.50;;
30519;SDS011;17300;50.374;8.006;2022-08-06T08:23:27;0.65;;;0.43;;
30519;SDS011;17300;50.374;8.006;2022-08-06T08:25:56;0.65;;;0.47;;
30519;SDS011;17300;50.374;8.006;2022-08-06T08:28:26;0.40;;;0.40;;
30519;SDS011;17300;50.374;8.006;2022-08-06T08:30:54;0.60;;;0.50;;
30519;SDS011;17300;50.374;8.006;2022-08-06T08:33:23;0.47;;;0.47;;
30519;SDS011;17300;50.374;8.006;2022-08-06T08:35:50;0.88;;;0.60;;
30519;SDS011;17300;50.374;8.006;2022-08-06T08:38:17;1.10;;;0.50;;
30519;SDS011;17300;50.374;8.006;2022-08-06T08:40:44;0.73;;;0.60;;
30519;SDS011;17300;50.374;8.006;2022-08-06T08:43:13;0.55;;;0.40;;
30519;SDS011;17300;50.374;8.006;2022-08-06T08:45:47;0.60;;;0.40;;
30519;SDS011;17300;50.374;8.006;2022-08-06T08:48:16;1.00;;;0.40;;
30519;SDS011;17300;50.374;8.006;2022-08-06T08:50:46;0.43;;;0.40;;
30519;SDS011;17300;50.374;8.006;2022-08-06T08:53:14;0.50;;;0.35;;
30519;SDS011;17300;50.374;8.006;2022-08-06T08:55:48;0.55;;;0.30;;
30519;SDS011;17300;50.374;8.006;2022-08-06T08:58:15;0.70;;;0.43;;
30519;SDS011;17300;50.374;8.006;2022-08-06T09:00:43;1.02;;;0.50;;
30519;SDS011;17300;50.374;8.006;2022-08-06T09:03:11;0.60;;;0.50;;
30519;SDS011;17300;50.374;8.006;2022-08-06T09:05:38;1.08;;;0.50;;
30519;SDS011;17300;50.374;8.006;2022-08-06T09:08:06;0.38;;;0.38;;
30519;SDS011;17300;50.374;8.006;2022-08-06T09:10:36;0.45;;;0.40;;
30519;SDS011;17300;50.374;8.006;2022-08-06T09:13:03;0.22;;;0.22;;
30519;SDS011;17300;50.374;8.006;2022-08-06T09:15:30;0.55;;;0.47;;
30519;SDS011;17300;50.374;8.006;2022-08-06T09:17:57;1.65;;;0.50;;
30519;SDS011;17300;50.374;8.006;2022-08-06T09:20:25;0.57;;;0.50;;
30519;SDS011;17300;50.374;8.006;2022-08-06T09:22:51;1.02;;;0.57;;
30519;SDS011;17300;50.374;8.006;2022-08-06T09:25:34;0.95;;;0.40;;
30519;SDS011;17300;50.374;8.006;2022-08-06T09:28:02;0.40;;;0.40;;
30519;SDS011;17300;50.374;8.006;2022-08-06T09:30:30;0.50;;;0.50;;
30519;SDS011;17300;50.374;8.006;2022-08-06T09:32:57;0.40;;;0.40;;
30519;SDS011;17300;50.374;8.006;2022-08-06T09:35:26;0.30;;;0.30;;
30519;SDS011;17300;50.374;8.006;2022-08-06T09:37:59;0.70;;;0.50;;
30519;SDS011;17300;50.374;8.006;2022-08-06T09:40:26;0.70;;;0.40;;
30519;SDS011;17300;50.374;8.006;2022-08-06T09:42:53;0.80;;;0.52;;
30519;SDS011;17300;50.374;8.006;2022-08-06T09:45:21;1.88;;;0.50;;
30519;SDS011;17300;50.374;8.006;2022-08-06T09:47:59;0.50;;;0.40;;
30519;SDS011;17300;50.374;8.006;2022-08-06T09:53:13;0.73;;;0.40;;
30519;SDS011;17300;50.374;8.006;2022-08-06T09:55:41;0.40;;;0.40;;
30519;SDS011;17300;50.374;8.006;2022-08-06T09:58:08;0.70;;;0.30;;
30519;SDS011;17300;50.374;8.006;2022-08-06T10:00:36;0.50;;;0.50;;
30519;SDS011;17300;50.374;8.006;2022-08-06T10:03:04;0.57;;;0.50;;
30519;SDS011;17300;50.374;8.006;2022-08-06T10:05:32;0.50;;;0.47;;
30519;SDS011;17300;50.374;8.006;2022-08-06T10:08:05;0.60;;;0.50;;
30519;SDS011;17300;50.374;8.006;2022-08-06T10:10:41;0.40;;;0.40;;
30519;SDS011;17300;50.374;8.006;2022-08-06T10:13:12;1.67;;;0.52;;
30519;SDS011;17300;50.374;8.006;2022-08-06T10:15:41;0.63;;;0.40;;
30519;SDS011;17300;50.374;8.006;2022-08-06T10:18:09;0.40;;;0.40;;
30519;SDS011;17300;50.374;8.006;2022-08-06T10:20:37;0.40;;;0.38;;
30519;SDS011;17300;50.374;8.006;2022-08-06T10:23:26;0.50;;;0.40;;
30519;SDS011;17300;50.374;8.006;2022-08-06T10:25:55;0.50;;;0.40;;
30519;SDS011;17300;50.374;8.006;2022-08-06T10:28:22;0.43;;;0.40;;
30519;SDS011;17300;50.374;8.006;2022-08-06T10:30:51;0.45;;;0.40;;
30519;SDS011;17300;50.374;8.006;2022-08-06T10:33:20;0.50;;;0.50;;
30519;SDS011;17300;50.374;8.006;2022-08-06T10:35:50;0.60;;;0.40;;
30519;SDS011;17300;50.374;8.006;2022-08-06T10:38:20;0.50;;;0.50;;
30519;SDS011;17300;50.374;8.006;2022-08-06T10:40:51;0.68;;;0.50;;
30519;SDS011;17300;50.374;8.006;2022-08-06T10:43:19;0.50;;;0.50;;
30519;SDS011;17300;50.374;8.006;2022-08-06T10:45:46;0.30;;;0.30;;
30519;SDS011;17300;50.374;8.006;2022-08-06T10:48:13;0.60;;;0.45;;
30519;SDS011;17300;50.374;8.006;2022-08-06T10:50:41;0.55;;;0.45;;
30519;SDS011;17300;50.374;8.006;2022-08-06T10:53:09;0.50;;;0.50;;
30519;SDS011;17300;50.374;8.006;2022-08-06T10:55:36;0.45;;;0.45;;
30519;SDS011;17300;50.374;8.006;2022-08-06T10:58:05;0.47;;;0.40;;
30519;SDS011;17300;50.374;8.006;2022-08-06T11:00:32;0.80;;;0.50;;
30519;SDS011;17300;50.374;8.006;2022-08-06T11:03:01;1.50;;;0.50;;
30519;SDS011;17300;50.374;8.006;2022-08-06T11:05:37;0.50;;;0.40;;
30519;SDS011;17300;50.374;8.006;2022-08-06T11:08:09;0.43;;;0.40;;
30519;SDS011;17300;50.374;8.006;2022-08-06T11:13:54;0.47;;;0.40;;
30519;SDS011;17300;50.374;8.006;2022-08-06T11:16:28;0.30;;;0.30;;
30519;SDS011;17300;50.374;8.006;2022-08-06T11:18:59;0.90;;;0.50;;
30519;SDS011;17300;50.374;8.006;2022-08-06T11:21:40;1.58;;;0.40;;
30519;SDS011;17300;50.374;8.006;2022-08-06T11:24:08;0.40;;;0.40;;
30519;SDS011;17300;50.374;8.006;2022-08-06T11:26:36;0.30;;;0.30;;
30519;SDS011;17300;50.374;8.006;2022-08-06T11:29:06;0.40;;;0.40;;
30519;SDS011;17300;50.374;8.006;2022-08-06T11:31:35;1.48;;;0.40;;
30519;SDS011;17300;50.374;8.006;2022-08-06T11:34:09;0.40;;;0.40;;
30519;SDS011;17300;50.374;8.006;2022-08-06T11:36:46;0.30;;;0.30;;
30519;SDS011;17300;50.374;8.006;2022-08-06T11:39:14;0.32;;;0.30;;
30519;SDS011;17300;50.374;8.006;2022-08-06T11:41:54;0.30;;;0.30;;
30519;SDS011;17300;50.374;8.006;2022-08-06T11:44:25;0.57;;;0.40;;
30519;SDS011;17300;50.374;8.006;2022-08-06T11:47:07;0.70;;;0.40;;
30519;SDS011;17300;50.374;8.006;2022-08-06T11:49:36;0.45;;;0.30;;
30519;SDS011;17300;50.374;8.006;2022-08-06T11:52:05;0.30;;;0.30;;
30519;SDS011;17300;50.374;8.006;2022-08-06T11:54:33;0.77;;;0.30;;
30519;SDS011;17300;50.374;8.006;2022-08-06T11:57:17;0.30;;;0.30;;
30519;SDS011;17300;50.374;8.006;2022-08-06T11:59:50;0.40;;;0.30;;
30519;SDS011;17300;50.374;8.006;2022-08-06T12:05:32;1.02;;;0.30;;
30519;SDS011;17300;50.374;8.006;2022-08-06T12:08:24;0.30;;;0.20;;
30519;SDS011;17300;50.374;8.006;2022-08-06T12:13:46;0.30;;;0.30;;
30519;SDS011;17300;50.374;8.006;2022-08-06T12:16:31;1.05;;;0.30;;
30519;SDS011;17300;50.374;8.006;2022-08-06T12:19:04;0.60;;;0.25;;
30519;SDS011;17300;50.374;8.006;2022-08-06T12:21:36;0.35;;;0.32;;
30519;SDS011;17300;50.374;8.006;2022-08-06T12:24:04;0.95;;;0.30;;
30519;SDS011;17300;50.374;8.006;2022-08-06T12:26:32;0.50;;;0.30;;
30519;SDS011;17300;50.374;8.006;2022-08-06T12:29:00;0.30;;;0.30;;
30519;SDS011;17300;50.374;8.006;2022-08-06T12:31:31;0.50;;;0.40;;
30519;SDS011;17300;50.374;8.006;2022-08-06T12:34:00;0.40;;;0.30;;
30519;SDS011;17300;50.374;8.006;2022-08-06T12:36:28;0.40;;;0.30;;
30519;SDS011;17300;50.374;8.006;2022-08-06T12:38:56;0.50;;;0.40;;
30519;SDS011;17300;50.374;8.006;2022-08-06T12:41:31;0.80;;;0.30;;
30519;SDS011;17300;50.374;8.006;2022-08-06T12:43:59;0.30;;;0.30;;
30519;SDS011;17300;50.374;8.006;2022-08-06T12:46:26;0.40;;;0.30;;
30519;SDS011;17300;50.374;8.006;2022-08-06T12:48:54;0.40;;;0.40;;
30519;SDS011;17300;50.374;8.006;2022-08-06T12:51:21;0.25;;;0.22;;
30519;SDS011;17300;50.374;8.006;2022-08-06T12:53:48;0.30;;;0.30;;
30519;SDS011;17300;50.374;8.006;2022-08-06T12:56:17;0.20;;;0.20;;
30519;SDS011;17300;50.374;8.006;2022-08-06T12:58:46;0.32;;;0.30;;
30519;SDS011;17300;50.374;8.006;2022-08-06T13:01:15;0.40;;;0.40;;
30519;SDS011;17300;50.374;8.006;2022-08-06T13:03:44;0.43;;;0.30;;
30519;SDS011;17300;50.374;8.006;2022-08-06T13:06:14;0.30;;;0.20;;
30519;SDS011;17300;50.374;8.006;2022-08-06T13:08:45;0.38;;;0.30;;
30519;SDS011;17300;50.374;8.006;2022-08-06T13:11:12;0.88;;;0.30;;
30519;SDS011;17300;50.374;8.006;2022-08-06T13:13:40;1.25;;;0.30;;
30519;SDS011;17300;50.374;8.006;2022-08-06T13:16:12;0.65;;;0.40;;
30519;SDS011;17300;50.374;8.006;2022-08-06T13:18:40;1.63;;;0.30;;
30519;SDS011;17300;50.374;8.006;2022-08-06T13:21:16;0.20;;;0.20;;
30519;SDS011;17300;50.374;8.006;2022-08-06T13:23:45;0.60;;;0.40;;
30519;SDS011;17300;50.374;8.006;2022-08-06T13:26:14;0.30;;;0.30;;
30519;SDS011;17300;50.374;8.006;2022-08-06T13:31:37;0.50;;;0.45;;
30519;SDS011;17300;50.374;8.006;2022-08-06T13:34:06;0.40;;;0.30;;
30519;SDS011;17300;50.374;8.006;2022-08-06T13:36:37;0.95;;;0.40;;
30519;SDS011;17300;50.374;8.006;2022-08-06T13:39:19;0.40;;;0.30;;
30519;SDS011;17300;50.374;8.006;2022-08-06T13:41:47;1.00;;;0.45;;
30519;SDS011;17300;50.374;8.006;2022-08-06T13:44:31;0.47;;;0.40;;
30519;SDS011;17300;50.374;8.006;2022-08-06T13:47:00;0.30;;;0.30;;
30519;SDS011;17300;50.374;8.006;2022-08-06T13:49:27;0.95;;;0.32;;
30519;SDS011;17300;50.374;8.006;2022-08-06T13:51:56;0.22;;;0.20;;
30519;SDS011;17300;50.374;8.006;2022-08-06T13:54:23;0.52;;;0.30;;
30519;SDS011;17300;50.374;8.006;2022-08-06T13:56:51;3.55;;;0.40;;
30519;SDS011;17300;50.374;8.006;2022-08-06T13:59:19;0.45;;;0.30;;
30519;SDS011;17300;50.374;8.006;2022-08-06T14:01:47;0.52;;;0.40;;
30519;SDS011;17300;50.374;8.006;2022-08-06T14:04:15;0.25;;;0.25;;
30519;SDS011;17300;50.374;8.006;2022-08-06T14:06:45;0.55;;;0.40;;
30519;SDS011;17300;50.374;8.006;2022-08-06T14:09:13;0.50;;;0.43;;
30519;SDS011;17300;50.374;8.006;2022-08-06T14:11:41;0.30;;;0.30;;
30519;SDS011;17300;50.374;8.006;2022-08-06T14:14:08;0.55;;;0.30;;
30519;SDS011;17300;50.374;8.006;2022-08-06T14:16:35;0.43;;;0.40;;
30519;SDS011;17300;50.374;8.006;2022-08-06T14:19:02;0.30;;;0.30;;
30519;SDS011;17300;50.374;8.006;2022-08-06T14:21:29;0.50;;;0.32;;
30519;SDS011;17300;50.374;8.006;2022-08-06T14:23:55;0.45;;;0.30;;
30519;SDS011;17300;50.374;8.006;2022-08-06T14:26:23;1.08;;;0.40;;
30519;SDS011;17300;50.374;8.006;2022-08-06T14:28:50;0.47;;;0.38;;
30519;SDS011;17300;50.374;8.006;2022-08-06T14:31:17;0.20;;;0.20;;
30519;SDS011;17300;50.374;8.006;2022-08-06T14:33:44;0.30;;;0.30;;
30519;SDS011;17300;50.374;8.006;2022-08-06T14:36:11;0.32;;;0.25;;
30519;SDS011;17300;50.374;8.006;2022-08-06T14:38:37;0.30;;;0.30;;
30519;SDS011;17300;50.374;8.006;2022-08-06T14:41:05;0.20;;;0.20;;
30519;SDS011;17300;50.374;8.006;2022-08-06T14:43:51;0.45;;;0.32;;
30519;SDS011;17300;50.374;8.006;2022-08-06T14:46:35;0.43;;;0.22;;
30519;SDS011;17300;50.374;8.006;2022-08-06T14:49:02;0.47;;;0.47;;
30519;SDS011;17300;50.374;8.006;2022-08-06T14:51:29;0.40;;;0.30;;
30519;SDS011;17300;50.374;8.006;2022-08-06T14:53:55;0.45;;;0.40;;
30519;SDS011;17300;50.374;8.006;2022-08-06T14:56:22;0.80;;;0.30;;
30519;SDS011;17300;50.374;8.006;2022-08-06T14:58:50;0.30;;;0.30;;
30519;SDS011;17300;50.374;8.006;2022-08-06T15:01:17;0.52;;;0.40;;
30519;SDS011;17300;50.374;8.006;2022-08-06T15:03:44;0.88;;;0.50;;
30519;SDS011;17300;50.374;8.006;2022-08-06T15:06:11;0.70;;;0.38;;
30519;SDS011;17300;50.374;8.006;2022-08-06T15:08:38;0.50;;;0.40;;
30519;SDS011;17300;50.374;8.006;2022-08-06T15:11:05;0.60;;;0.40;;
30519;SDS011;17300;50.374;8.006;2022-08-06T15:13:32;0.80;;;0.40;;
30519;SDS011;17300;50.374;8.006;2022-08-06T15:16:00;0.30;;;0.30;;
30519;SDS011;17300;50.374;8.006;2022-08-06T15:18:27;0.30;;;0.30;;
30519;SDS011;17300;50.374;8.006;2022-08-06T15:20:54;0.47;;;0.25;;